Time;durP1;ratioP1;P1;durP2;ratioP2;P2;SDS_P1;SDS_P2;PMS_P1;PMS_P2;Temp;Humidity;BMP_temperature;BMP_pressure;BME280_temperature;BME280_humidity;BME280_pressure;Samples;Min_cycle;Max_cycle;Signal;HPM_P1;HPM_P2
2022/10/02 00:01:56;;;;;;;0.13;0.13;;;;;;;;;;5012466;28;20053;-74
2022/10/02 00:04:27;;;;;;;0.13;0.13;;;;;;;;;;5009045;28;20045;-74
2022/10/02 00:06:59;;;;;;;0.00;0.00;;;;;;;;;;5012858;28;20492;-75
2022/10/02 00:09:29;;;;;;;0.10;0.10;;;;;;;;;;5010604;28;20053;-76
2022/10/02 00:11:59;;;;;;;0.00;0.00;;;;;;;;;;5012014;28;20041;-75
2022/10/02 00:14:32;;;;;;;0.52;0.10;;;;;;;;;;5008541;28;20076;-76
2022/10/02 00:17:01;;;;;;;0.22;0.22;;;;;;;;;;5036782;28;20287;-76
2022/10/02 00:19:30;;;;;;;0.20;0.20;;;;;;;;;;5029694;28;20057;-76
2022/10/02 00:22:13;;;;;;;0.30;0.30;;;;;;;;;;5035188;28;20033;-76
2022/10/02 00:24:44;;;;;;;0.08;0.08;;;;;;;;;;5022244;28;20053;-76
2022/10/02 00:27:27;;;;;;;2.13;0.20;;;;;;;;;;5015106;28;20041;-76
2022/10/02 00:29:59;;;;;;;0.15;0.10;;;;;;;;;;5007794;28;20053;-76
2022/10/02 00:32:31;;;;;;;1.00;0.38;;;;;;;;;;5010039;28;20045;-74
2022/10/02 00:35:05;;;;;;;0.08;0.08;;;;;;;;;;5008366;28;20078;-73
2022/10/02 00:37:38;;;;;;;0.43;0.10;;;;;;;;;;5009339;28;20045;-74
2022/10/02 00:40:19;;;;;;;0.15;0.10;;;;;;;;;;5011979;28;20441;-74
2022/10/02 00:43:00;;;;;;;0.10;0.10;;;;;;;;;;5008885;28;20365;-75
2022/10/02 00:45:41;;;;;;;0.15;0.13;;;;;;;;;;5008671;28;20049;-74
2022/10/02 00:48:16;;;;;;;5.47;0.20;;;;;;;;;;5000420;28;20093;-75
2022/10/02 00:50:50;;;;;;;0.15;0.13;;;;;;;;;;5010127;28;20054;-74
2022/10/02 00:53:25;;;;;;;1.95;0.10;;;;;;;;;;5002141;28;20399;-75
2022/10/02 00:56:00;;;;;;;0.10;0.10;;;;;;;;;;5023570;28;20422;-74
2022/10/02 00:58:40;;;;;;;1.02;0.13;;;;;;;;;;5036547;28;20056;-74
2022/10/02 01:01:12;;;;;;;0.05;0.05;;;;;;;;;;5028468;28;20513;-74
2022/10/02 01:03:41;;;;;;;0.10;0.10;;;;;;;;;;5019584;28;20045;-74
2022/10/02 01:06:11;;;;;;;0.65;0.30;;;;;;;;;;5030188;28;20507;-74
2022/10/02 01:08:39;;;;;;;1.00;0.20;;;;;;;;;;5032026;28;20049;-74
2022/10/02 01:11:08;;;;;;;0.15;0.15;;;;;;;;;;5029355;28;20052;-74
2022/10/02 01:13:36;;;;;;;0.10;0.10;;;;;;;;;;5029563;28;20056;-74
2022/10/02 01:16:05;;;;;;;0.20;0.15;;;;;;;;;;5012081;28;20052;-75
2022/10/02 01:18:35;;;;;;;0.40;0.20;;;;;;;;;;5005956;28;20045;-74
2022/10/02 01:21:05;;;;;;;0.00;0.00;;;;;;;;;;5010978;28;20050;-74
2022/10/02 01:23:37;;;;;;;0.10;0.10;;;;;;;;;;5009550;28;20464;-74
2022/10/02 01:26:15;;;;;;;0.10;0.10;;;;;;;;;;5053089;28;20415;-73
2022/10/02 01:28:44;;;;;;;0.20;0.20;;;;;;;;;;5067247;28;20134;-73
2022/10/02 01:31:14;;;;;;;8.77;0.30;;;;;;;;;;5064395;28;20045;-73
2022/10/02 01:33:43;;;;;;;0.20;0.20;;;;;;;;;;5065972;28;20111;-73
2022/10/02 01:36:13;;;;;;;0.10;0.10;;;;;;;;;;5063653;28;20505;-72
2022/10/02 01:38:41;;;;;;;0.10;0.10;;;;;;;;;;5060827;28;20045;-72
2022/10/02 01:41:11;;;;;;;0.00;0.00;;;;;;;;;;5059371;28;20176;-73
2022/10/02 01:43:42;;;;;;;0.00;0.00;;;;;;;;;;5063898;28;20051;-73
2022/10/02 01:46:21;;;;;;;3.40;0.45;;;;;;;;;;5069178;28;20041;-72
2022/10/02 01:48:56;;;;;;;0.68;0.35;;;;;;;;;;5065829;28;20080;-73
2022/10/02 01:51:33;;;;;;;1.08;0.38;;;;;;;;;;5062825;28;20052;-73
2022/10/02 01:54:09;;;;;;;0.98;0.35;;;;;;;;;;5064328;28;20063;-74
2022/10/02 01:56:41;;;;;;;8.00;0.30;;;;;;;;;;5054468;28;20040;-74
2022/10/02 01:59:17;;;;;;;0.20;0.20;;;;;;;;;;5060723;28;20049;-74
2022/10/02 02:01:50;;;;;;;0.22;0.13;;;;;;;;;;5066375;28;20396;-74
2022/10/02 02:04:24;;;;;;;0.22;0.15;;;;;;;;;;5059431;28;20045;-74
2022/10/02 02:06:55;;;;;;;0.10;0.10;;;;;;;;;;5051665;28;20051;-74
2022/10/02 02:09:29;;;;;;;0.00;0.00;;;;;;;;;;5044417;28;20045;-74
2022/10/02 02:12:01;;;;;;;0.00;0.00;;;;;;;;;;5045632;28;20045;-74
2022/10/02 02:14:32;;;;;;;0.05;0.05;;;;;;;;;;5047632;28;20647;-73
2022/10/02 02:17:03;;;;;;;0.00;0.00;;;;;;;;;;5064776;28;20055;-73
2022/10/02 02:19:35;;;;;;;0.28;0.28;;;;;;;;;;5068052;28;20493;-74
2022/10/02 02:22:06;;;;;;;1.85;0.57;;;;;;;;;;5058785;28;20068;-74
2022/10/02 02:24:39;;;;;;;1.10;0.85;;;;;;;;;;5059062;28;20052;-74
2022/10/02 02:27:07;;;;;;;0.10;0.10;;;;;;;;;;5079728;28;20055;-73
2022/10/02 02:29:38;;;;;;;0.63;0.20;;;;;;;;;;5079280;28;20617;-74
2022/10/02 02:32:08;;;;;;;5.00;0.28;;;;;;;;;;5079341;28;20052;-74
2022/10/02 02:34:39;;;;;;;0.10;0.10;;;;;;;;;;5073958;28;20552;-75
2022/10/02 02:37:10;;;;;;;0.22;0.22;;;;;;;;;;5072738;28;20049;-74
2022/10/02 02:39:44;;;;;;;0.45;0.20;;;;;;;;;;5060088;28;20049;-74
2022/10/02 02:42:13;;;;;;;0.55;0.20;;;;;;;;;;5063006;28;20064;-74
2022/10/02 02:44:48;;;;;;;3.63;0.20;;;;;;;;;;5064201;28;20057;-74
2022/10/02 02:47:18;;;;;;;0.32;0.32;;;;;;;;;;5067887;28;20041;-74
2022/10/02 02:49:51;;;;;;;0.00;0.00;;;;;;;;;;5068318;28;20048;-74
2022/10/02 02:52:21;;;;;;;0.00;0.00;;;;;;;;;;5064381;28;20056;-75
2022/10/02 02:54:52;;;;;;;0.00;0.00;;;;;;;;;;5064819;28;20052;-75
2022/10/02 02:57:24;;;;;;;0.20;0.20;;;;;;;;;;5063193;28;20045;-75
2022/10/02 02:59:55;;;;;;;0.08;0.08;;;;;;;;;;5063958;28;20072;-74
2022/10/02 03:02:23;;;;;;;0.10;0.10;;;;;;;;;;5065315;28;20044;-74
2022/10/02 03:04:52;;;;;;;0.00;0.00;;;;;;;;;;5066192;28;20107;-74
2022/10/02 03:07:20;;;;;;;0.28;0.20;;;;;;;;;;5060713;28;20514;-74
2022/10/02 03:09:53;;;;;;;0.88;0.22;;;;;;;;;;5065822;28;20045;-74
2022/10/02 03:12:25;;;;;;;0.30;0.20;;;;;;;;;;5065362;28;20484;-74
2022/10/02 03:15:02;;;;;;;0.20;0.20;;;;;;;;;;5064771;28;20127;-74
2022/10/02 03:17:40;;;;;;;0.10;0.10;;;;;;;;;;5060468;28;20051;-73
2022/10/02 03:20:13;;;;;;;0.20;0.20;;;;;;;;;;5068180;28;20420;-73
2022/10/02 03:22:45;;;;;;;0.10;0.10;;;;;;;;;;5068911;28;20520;-73
2022/10/02 03:25:14;;;;;;;0.90;0.40;;;;;;;;;;5057592;28;20112;-73
2022/10/02 03:27:46;;;;;;;0.00;0.00;;;;;;;;;;5058601;28;20072;-73
2022/10/02 03:30:19;;;;;;;0.20;0.20;;;;;;;;;;5065626;28;20049;-73
2022/10/02 03:32:50;;;;;;;0.10;0.10;;;;;;;;;;5066625;28;20143;-73
2022/10/02 03:35:18;;;;;;;0.00;0.00;;;;;;;;;;5061524;28;20056;-74
2022/10/02 03:37:48;;;;;;;0.10;0.10;;;;;;;;;;5068975;28;20044;-72
2022/10/02 03:40:17;;;;;;;0.32;0.20;;;;;;;;;;5066947;28;20047;-74
2022/10/02 03:42:45;;;;;;;0.20;0.20;;;;;;;;;;5067688;28;20477;-74
2022/10/02 03:45:13;;;;;;;0.00;0.00;;;;;;;;;;5053048;28;20063;-74
2022/10/02 03:48:03;;;;;;;0.25;0.20;;;;;;;;;;5064506;28;20059;-73
2022/10/02 03:50:31;;;;;;;1.45;0.28;;;;;;;;;;5059661;28;20305;-74
2022/10/02 03:53:07;;;;;;;0.10;0.10;;;;;;;;;;5070095;28;20047;-74
2022/10/02 03:55:38;;;;;;;1.08;0.20;;;;;;;;;;5062314;28;20047;-75
2022/10/02 03:58:10;;;;;;;1.45;0.10;;;;;;;;;;5060764;28;20051;-73
2022/10/02 04:00:42;;;;;;;0.10;0.10;;;;;;;;;;5065278;28;20045;-73
2022/10/02 04:03:13;;;;;;;0.22;0.13;;;;;;;;;;5056561;28;20058;-73
2022/10/02 04:05:43;;;;;;;0.43;0.43;;;;;;;;;;5058050;28;20057;-73
2022/10/02 04:08:14;;;;;;;0.20;0.20;;;;;;;;;;5065564;28;20048;-74
2022/10/02 04:10:45;;;;;;;0.10;0.10;;;;;;;;;;5063156;28;20057;-74
2022/10/02 04:13:17;;;;;;;0.10;0.10;;;;;;;;;;5068372;28;20040;-73
2022/10/02 04:15:58;;;;;;;0.13;0.13;;;;;;;;;;5056452;28;20049;-74
2022/10/02 04:18:31;;;;;;;0.75;0.20;;;;;;;;;;5067780;28;20102;-74
2022/10/02 04:21:00;;;;;;;0.20;0.20;;;;;;;;;;5055525;28;20053;-74
2022/10/02 04:23:30;;;;;;;1.05;0.22;;;;;;;;;;5065543;28;20040;-74
2022/10/02 04:26:01;;;;;;;0.88;0.45;;;;;;;;;;5062300;28;20477;-74
2022/10/02 04:28:35;;;;;;;0.10;0.10;;;;;;;;;;5064470;28;20048;-74
2022/10/02 04:31:06;;;;;;;0.10;0.10;;;;;;;;;;5068077;28;20100;-73
2022/10/02 04:33:36;;;;;;;0.52;0.10;;;;;;;;;;5057189;28;20049;-74
2022/10/02 04:36:09;;;;;;;0.20;0.20;;;;;;;;;;5058694;28;20053;-74
2022/10/02 04:38:44;;;;;;;0.03;0.03;;;;;;;;;;5060689;28;20052;-75
2022/10/02 04:41:19;;;;;;;0.17;0.17;;;;;;;;;;5061346;28;20048;-74
2022/10/02 04:43:55;;;;;;;3.25;0.30;;;;;;;;;;5066152;28;20066;-74
2022/10/02 04:46:32;;;;;;;0.00;0.00;;;;;;;;;;5063864;28;20049;-75
2022/10/02 04:49:12;;;;;;;0.30;0.13;;;;;;;;;;5060642;28;20044;-74
2022/10/02 04:51:46;;;;;;;1.45;0.63;;;;;;;;;;5068472;28;20053;-74
2022/10/02 04:54:22;;;;;;;0.00;0.00;;;;;;;;;;5061854;28;20051;-75
2022/10/02 04:56:56;;;;;;;0.20;0.20;;;;;;;;;;5056565;28;20404;-74
2022/10/02 04:59:36;;;;;;;0.08;0.08;;;;;;;;;;5051600;28;20067;-74
2022/10/02 05:02:11;;;;;;;0.10;0.10;;;;;;;;;;5065349;28;20171;-74
2022/10/02 05:04:39;;;;;;;;;;;;;;;;;;5062830;28;20060;-74
2022/10/02 05:07:21;;;;;;;0.20;0.20;;;;;;;;;;5056549;28;19925;-73
2022/10/02 05:09:57;;;;;;;0.28;0.20;;;;;;;;;;5064883;28;20048;-74
2022/10/02 05:12:36;;;;;;;0.17;0.17;;;;;;;;;;5064193;28;20509;-74
2022/10/02 05:15:19;;;;;;;0.10;0.10;;;;;;;;;;5061012;28;20073;-74
2022/10/02 05:17:56;;;;;;;0.28;0.20;;;;;;;;;;5057139;28;20468;-74
2022/10/02 05:20:39;;;;;;;0.00;0.00;;;;;;;;;;5062782;28;20049;-74
2022/10/02 05:23:15;;;;;;;0.30;0.15;;;;;;;;;;5050818;28;20523;-74
2022/10/02 05:25:50;;;;;;;0.30;0.30;;;;;;;;;;5062360;28;20051;-73
2022/10/02 05:28:27;;;;;;;0.10;0.10;;;;;;;;;;5054439;28;20517;-74
2022/10/02 05:31:02;;;;;;;0.10;0.10;;;;;;;;;;5061713;28;20053;-74
2022/10/02 05:33:46;;;;;;;1.65;0.50;;;;;;;;;;5058002;28;20047;-74
2022/10/02 05:36:39;;;;;;;2.50;1.15;;;;;;;;;;5062849;28;20057;-74
2022/10/02 05:39:10;;;;;;;0.30;0.30;;;;;;;;;;5042128;28;20673;-74
2022/10/02 05:41:44;;;;;;;0.00;0.00;;;;;;;;;;5053433;28;20045;-74
2022/10/02 05:44:15;;;;;;;0.20;0.20;;;;;;;;;;5060977;28;20044;-75
2022/10/02 05:46:45;;;;;;;0.28;0.10;;;;;;;;;;5054870;28;20071;-75
2022/10/02 05:49:16;;;;;;;5.28;0.40;;;;;;;;;;5063773;28;20047;-75
2022/10/02 05:51:49;;;;;;;0.08;0.08;;;;;;;;;;5062789;28;20041;-74
2022/10/02 05:54:23;;;;;;;0.10;0.10;;;;;;;;;;5052254;28;20949;-75
2022/10/02 05:56:53;;;;;;;0.30;0.10;;;;;;;;;;5063400;28;20527;-74
2022/10/02 05:59:26;;;;;;;0.28;0.28;;;;;;;;;;5051326;28;20141;-75
2022/10/02 06:01:56;;;;;;;0.38;0.28;;;;;;;;;;5055587;28;20053;-74
2022/10/02 06:04:28;;;;;;;0.08;0.08;;;;;;;;;;5054947;28;20051;-75
2022/10/02 06:06:58;;;;;;;4.22;0.10;;;;;;;;;;5056807;28;20049;-75
2022/10/02 06:09:30;;;;;;;0.10;0.10;;;;;;;;;;5059346;28;20045;-74
2022/10/02 06:12:01;;;;;;;0.20;0.20;;;;;;;;;;5058020;28;20103;-74
2022/10/02 06:14:32;;;;;;;0.00;0.00;;;;;;;;;;5066985;28;20045;-75
2022/10/02 06:17:03;;;;;;;0.57;0.20;;;;;;;;;;5063657;28;20055;-74
2022/10/02 06:19:36;;;;;;;0.10;0.10;;;;;;;;;;5062622;28;20047;-75
2022/10/02 06:22:06;;;;;;;0.15;0.15;;;;;;;;;;5068148;28;20048;-75
2022/10/02 06:24:39;;;;;;;0.10;0.10;;;;;;;;;;5063867;28;20408;-75
2022/10/02 06:27:13;;;;;;;0.15;0.15;;;;;;;;;;5068442;28;20057;-75
2022/10/02 06:29:43;;;;;;;0.63;0.30;;;;;;;;;;5060550;28;20076;-74
2022/10/02 06:32:17;;;;;;;0.30;0.30;;;;;;;;;;5065413;28;20048;-75
2022/10/02 06:34:46;;;;;;;0.30;0.20;;;;;;;;;;5064726;28;20044;-74
2022/10/02 06:37:27;;;;;;;0.47;0.15;;;;;;;;;;5066774;28;20653;-75
2022/10/02 06:40:08;;;;;;;0.52;0.52;;;;;;;;;;5070814;28;20059;-75
2022/10/02 06:42:42;;;;;;;0.10;0.10;;;;;;;;;;5064966;28;20048;-75
2022/10/02 06:45:16;;;;;;;0.50;0.47;;;;;;;;;;5064009;28;20448;-75
2022/10/02 06:47:56;;;;;;;0.70;0.32;;;;;;;;;;5062233;28;20080;-75
2022/10/02 06:50:31;;;;;;;0.45;0.25;;;;;;;;;;5064820;28;20053;-75
2022/10/02 06:53:02;;;;;;;1.23;0.75;;;;;;;;;;5064831;28;20041;-75
2022/10/02 06:55:39;;;;;;;1.27;0.30;;;;;;;;;;5060150;28;20408;-75
2022/10/02 06:58:20;;;;;;;0.25;0.25;;;;;;;;;;5062737;28;20048;-74
2022/10/02 07:00:50;;;;;;;3.05;1.13;;;;;;;;;;5058892;28;20045;-75
2022/10/02 07:03:32;;;;;;;2.13;0.80;;;;;;;;;;5064631;28;20040;-75
2022/10/02 07:06:15;;;;;;;0.65;0.55;;;;;;;;;;5068518;28;20037;-74
2022/10/02 07:08:59;;;;;;;1.73;1.02;;;;;;;;;;5067547;28;20047;-74
2022/10/02 07:11:32;;;;;;;2.10;0.70;;;;;;;;;;5059268;28;20049;-75
2022/10/02 07:14:16;;;;;;;1.95;0.77;;;;;;;;;;5064888;28;20579;-74
2022/10/02 07:17:04;;;;;;;2.92;0.82;;;;;;;;;;5047606;28;20044;-73
2022/10/02 07:19:53;;;;;;;1.33;0.80;;;;;;;;;;5063084;28;20800;-73
2022/10/02 07:22:27;;;;;;;1.40;0.22;;;;;;;;;;5062031;28;20273;-74
2022/10/02 07:25:23;;;;;;;0.17;0.17;;;;;;;;;;5064432;28;20059;-74
2022/10/02 07:27:56;;;;;;;0.43;0.43;;;;;;;;;;5063573;28;20550;-74
2022/10/02 07:30:25;;;;;;;0.52;0.35;;;;;;;;;;5061460;28;20040;-74
2022/10/02 07:32:58;;;;;;;0.98;0.50;;;;;;;;;;5066623;28;20058;-74
2022/10/02 07:35:40;;;;;;;1.75;1.55;;;;;;;;;;5060376;28;20048;-74
2022/10/02 07:38:20;;;;;;;0.90;0.30;;;;;;;;;;5055257;28;20493;-74
2022/10/02 07:40:58;;;;;;;0.30;0.30;;;;;;;;;;5061033;28;20055;-75
2022/10/02 07:43:38;;;;;;;0.55;0.40;;;;;;;;;;5061181;28;20505;-75
2022/10/02 07:46:14;;;;;;;3.65;0.57;;;;;;;;;;5065913;28;20057;-76
2022/10/02 07:48:56;;;;;;;2.35;0.75;;;;;;;;;;5061931;28;20365;-74
2022/10/02 07:51:48;;;;;;;0.40;0.40;;;;;;;;;;5064477;28;20044;-76
2022/10/02 07:54:38;;;;;;;7.40;2.60;;;;;;;;;;5061210;28;20393;-76
2022/10/02 07:57:15;;;;;;;5.32;1.90;;;;;;;;;;5055893;28;20134;-75
2022/10/02 07:59:45;;;;;;;4.78;2.05;;;;;;;;;;5063039;28;20076;-74
2022/10/02 08:02:18;;;;;;;2.72;1.05;;;;;;;;;;5062605;28;20064;-74
2022/10/02 08:04:47;;;;;;;1.45;0.47;;;;;;;;;;5061760;28;20050;-75
2022/10/02 08:07:16;;;;;;;1.02;0.60;;;;;;;;;;5054539;28;20059;-75
2022/10/02 08:09:47;;;;;;;1.15;0.88;;;;;;;;;;5057172;28;20063;-74
2022/10/02 08:12:25;;;;;;;3.67;1.45;;;;;;;;;;5059741;28;20056;-76
2022/10/02 08:14:55;;;;;;;3.45;1.75;;;;;;;;;;5062400;28;20511;-75
2022/10/02 08:17:27;;;;;;;2.03;1.60;;;;;;;;;;5060069;28;20076;-75
2022/10/02 08:19:57;;;;;;;4.53;1.35;;;;;;;;;;5065418;28;20428;-76
2022/10/02 08:22:27;;;;;;;6.47;2.20;;;;;;;;;;5061213;28;20131;-77
2022/10/02 08:24:57;;;;;;;5.18;2.45;;;;;;;;;;5064477;28;20067;-76
2022/10/02 08:27:29;;;;;;;3.58;2.47;;;;;;;;;;5062127;28;20040;-75
2022/10/02 08:30:02;;;;;;;7.15;2.42;;;;;;;;;;5066160;28;20045;-75
2022/10/02 08:32:31;;;;;;;1.77;1.20;;;;;;;;;;5058187;28;20052;-75
2022/10/02 08:35:02;;;;;;;1.70;1.20;;;;;;;;;;5065473;28;20052;-75
2022/10/02 08:37:34;;;;;;;0.63;0.50;;;;;;;;;;5060806;28;20055;-75
2022/10/02 08:40:28;;;;;;;1.27;0.50;;;;;;;;;;5061109;28;20052;-75
2022/10/02 08:43:16;;;;;;;2.13;0.55;;;;;;;;;;5061330;28;20489;-75
2022/10/02 08:46:01;;;;;;;0.98;0.20;;;;;;;;;;5065265;28;20147;-75
2022/10/02 08:48:53;;;;;;;0.17;0.17;;;;;;;;;;5056592;28;20134;-75
2022/10/02 08:51:39;;;;;;;1.08;0.68;;;;;;;;;;5060462;28;20493;-75
2022/10/02 08:54:23;;;;;;;0.73;0.55;;;;;;;;;;5064619;28;20556;-75
2022/10/02 08:56:59;;;;;;;0.30;0.25;;;;;;;;;;5061985;28;20334;-76
2022/10/02 08:59:52;;;;;;;8.35;0.30;;;;;;;;;;5050585;28;20067;-75
2022/10/02 09:02:44;;;;;;;2.00;0.20;;;;;;;;;;5059845;28;20040;-76
2022/10/02 09:05:32;;;;;;;3.08;0.30;;;;;;;;;;5042963;28;20045;-76
2022/10/02 09:08:20;;;;;;;0.57;0.40;;;;;;;;;;5054602;28;20041;-76
2022/10/02 09:11:04;;;;;;;2.17;0.40;;;;;;;;;;5056818;28;20359;-76
2022/10/02 09:14:04;;;;;;;2.10;0.87;;;;;;;;;;5055496;28;20054;-75
2022/10/02 09:16:37;;;;;;;0.63;0.30;;;;;;;;;;5022270;28;20060;-76
2022/10/02 09:19:18;;;;;;;0.20;0.20;;;;;;;;;;5060224;28;20460;-76
2022/10/02 09:21:51;;;;;;;2.50;0.30;;;;;;;;;;5061925;28;20055;-76
2022/10/02 09:24:39;;;;;;;0.20;0.20;;;;;;;;;;5067518;28;20143;-76
2022/10/02 09:27:38;;;;;;;0.50;0.20;;;;;;;;;;5059672;28;20135;-76
2022/10/02 09:30:26;;;;;;;0.52;0.22;;;;;;;;;;5015251;28;20049;-76
2022/10/02 09:33:19;;;;;;;0.13;0.13;;;;;;;;;;5056581;28;20048;-76
2022/10/02 09:36:06;;;;;;;0.10;0.10;;;;;;;;;;5057908;28;20048;-76
2022/10/02 09:38:50;;;;;;;0.20;0.20;;;;;;;;;;5053280;28;20048;-76
2022/10/02 09:41:39;;;;;;;0.85;0.57;;;;;;;;;;5064300;28;20051;-76
2022/10/02 09:44:34;;;;;;;0.20;0.20;;;;;;;;;;5064612;28;20052;-76
2022/10/02 09:47:23;;;;;;;0.30;0.30;;;;;;;;;;5061110;28;20053;-76
2022/10/02 09:50:05;;;;;;;0.30;0.20;;;;;;;;;;5066696;28;20056;-76
2022/10/02 09:52:54;;;;;;;0.20;0.20;;;;;;;;;;5063940;28;20048;-76
2022/10/02 09:55:35;;;;;;;0.20;0.20;;;;;;;;;;5069882;28;20056;-76
2022/10/02 09:58:11;;;;;;;0.10;0.10;;;;;;;;;;5071243;28;20075;-77
2022/10/02 10:00:52;;;;;;;3.65;0.32;;;;;;;;;;5066003;28;20053;-75
2022/10/02 10:03:39;;;;;;;0.10;0.10;;;;;;;;;;5060811;28;20136;-76
2022/10/02 10:06:17;;;;;;;0.10;0.10;;;;;;;;;;5060037;28;20144;-76
2022/10/02 10:09:02;;;;;;;0.52;0.30;;;;;;;;;;5058393;28;20338;-76
2022/10/02 10:11:49;;;;;;;1.55;0.30;;;;;;;;;;5066857;28;20064;-75
2022/10/02 10:14:30;;;;;;;2.28;0.20;;;;;;;;;;5061645;28;20041;-75
2022/10/02 10:17:18;;;;;;;1.60;1.00;;;;;;;;;;5065482;28;20049;-75
2022/10/02 10:20:07;;;;;;;0.22;0.22;;;;;;;;;;5069456;28;20044;-75
2022/10/02 10:22:44;;;;;;;0.50;0.50;;;;;;;;;;5061225;28;20688;-75
2022/10/02 10:25:27;;;;;;;0.05;0.05;;;;;;;;;;5057227;28;20053;-75
2022/10/02 10:28:10;;;;;;;0.60;0.30;;;;;;;;;;5060766;28;20045;-75
2022/10/02 10:30:54;;;;;;;0.50;0.50;;;;;;;;;;5064519;28;20488;-75
2022/10/02 10:33:33;;;;;;;0.35;0.17;;;;;;;;;;5060427;28;20066;-75
2022/10/02 10:39:01;;;;;;;0.32;0.30;;;;;;;;;;5061933;28;20048;-76
2022/10/02 10:42:00;;;;;;;0.20;0.20;;;;;;;;;;5064948;28;20039;-75
2022/10/02 10:44:46;;;;;;;0.25;0.17;;;;;;;;;;5020685;28;20632;-75
2022/10/02 10:47:32;;;;;;;1.30;0.30;;;;;;;;;;5056139;28;20045;-75
2022/10/02 10:50:20;;;;;;;0.63;0.63;;;;;;;;;;5066739;28;20036;-75
2022/10/02 10:52:59;;;;;;;0.35;0.35;;;;;;;;;;5060366;28;20048;-75
2022/10/02 10:55:35;;;;;;;0.30;0.20;;;;;;;;;;5052343;28;20049;-76
2022/10/02 10:58:13;;;;;;;0.30;0.20;;;;;;;;;;5057967;28;20056;-75
2022/10/02 11:00:49;;;;;;;1.98;0.65;;;;;;;;;;5058340;28;20059;-74
2022/10/02 11:03:32;;;;;;;0.60;0.40;;;;;;;;;;5061716;28;20049;-75
2022/10/02 11:06:13;;;;;;;0.35;0.30;;;;;;;;;;5060367;28;20045;-75
2022/10/02 11:09:03;;;;;;;2.38;0.45;;;;;;;;;;5066559;28;20536;-75
2022/10/02 11:11:39;;;;;;;0.20;0.20;;;;;;;;;;5058156;28;20068;-76
2022/10/02 11:14:21;;;;;;;0.20;0.20;;;;;;;;;;5055679;28;20119;-76
2022/10/02 11:17:07;;;;;;;0.22;0.20;;;;;;;;;;5063372;28;20051;-76
2022/10/02 11:19:46;;;;;;;1.25;0.30;;;;;;;;;;5062201;28;20109;-75
2022/10/02 11:22:25;;;;;;;0.30;0.28;;;;;;;;;;5064461;28;20048;-77
2022/10/02 11:25:11;;;;;;;0.40;0.10;;;;;;;;;;5060815;28;20041;-78
2022/10/02 11:27:51;;;;;;;0.10;0.00;;;;;;;;;;5034343;28;20051;-76
2022/10/02 11:30:22;;;;;;;0.10;0.10;;;;;;;;;;5066684;28;20082;-77
2022/10/02 11:33:10;;;;;;;0.32;0.10;;;;;;;;;;5062833;28;20048;-76
2022/10/02 11:35:48;;;;;;;1.30;0.40;;;;;;;;;;5067968;28;20512;-76
2022/10/02 11:38:26;;;;;;;0.10;0.10;;;;;;;;;;5067275;28;20412;-75
2022/10/02 11:41:09;;;;;;;0.55;0.55;;;;;;;;;;5066214;28;20048;-73
2022/10/02 11:43:50;;;;;;;0.20;0.20;;;;;;;;;;5065300;28;20067;-72
2022/10/02 11:46:39;;;;;;;0.10;0.10;;;;;;;;;;5059804;28;20045;-73
2022/10/02 11:49:19;;;;;;;0.10;0.10;;;;;;;;;;5065303;28;20576;-72
2022/10/02 11:52:00;;;;;;;0.00;0.00;;;;;;;;;;5066644;28;20090;-73
2022/10/02 11:54:39;;;;;;;0.60;0.40;;;;;;;;;;5057354;28;20164;-71
2022/10/02 11:57:29;;;;;;;0.10;0.10;;;;;;;;;;5059414;28;20044;-71
2022/10/02 12:00:06;;;;;;;0.70;0.10;;;;;;;;;;5053528;28;20053;-71
2022/10/02 12:02:38;;;;;;;0.05;0.05;;;;;;;;;;5058315;28;20052;-71
2022/10/02 12:05:20;;;;;;;1.23;0.10;;;;;;;;;;5062454;28;20453;-73
2022/10/02 12:07:54;;;;;;;0.10;0.10;;;;;;;;;;5057633;28;20049;-72
2022/10/02 12:10:29;;;;;;;0.98;0.40;;;;;;;;;;5059557;28;20060;-73
2022/10/02 12:13:03;;;;;;;0.50;0.30;;;;;;;;;;5054919;28;20045;-72
2022/10/02 12:15:36;;;;;;;0.00;0.00;;;;;;;;;;5059288;28;20080;-72
2022/10/02 12:18:11;;;;;;;0.10;0.10;;;;;;;;;;5056001;28;20408;-72
2022/10/02 12:29:24;;;;;;;0.10;0.10;;;;;;;;;;5061449;28;20143;-73
2022/10/02 12:31:56;;;;;;;0.40;0.40;;;;;;;;;;5059118;28;20048;-74
2022/10/02 12:34:31;;;;;;;0.15;0.15;;;;;;;;;;5058836;28;20068;-74
2022/10/02 12:36:59;;;;;;;;;;;;;;;;;;5060786;28;20059;-74
2022/10/02 12:39:33;;;;;;;0.20;0.10;;;;;;;;;;5057361;28;20292;-76
2022/10/02 12:42:07;;;;;;;1.25;0.20;;;;;;;;;;5062107;28;20405;-72
2022/10/02 12:44:50;;;;;;;0.10;0.10;;;;;;;;;;5064313;28;20047;-71
2022/10/02 12:47:42;;;;;;;0.10;0.10;;;;;;;;;;5059166;28;20053;-72
2022/10/02 12:50:22;;;;;;;0.63;0.10;;;;;;;;;;5055445;28;20045;-72
2022/10/02 12:53:04;;;;;;;0.00;0.00;;;;;;;;;;5057608;28;20356;-74
2022/10/02 12:55:54;;;;;;;0.00;0.00;;;;;;;;;;5053890;28;20091;-72
2022/10/02 12:58:25;;;;;;;0.03;0.03;;;;;;;;;;5048398;28;20101;-75
2022/10/02 13:01:11;;;;;;;0.47;0.20;;;;;;;;;;5057705;28;20055;-74
2022/10/02 13:03:51;;;;;;;0.17;0.10;;;;;;;;;;5058830;28;20440;-74
2022/10/02 13:06:39;;;;;;;2.08;0.13;;;;;;;;;;5054115;28;20052;-74
2022/10/02 13:09:20;;;;;;;0.10;0.10;;;;;;;;;;5051531;28;20049;-74
2022/10/02 13:11:55;;;;;;;0.20;0.05;;;;;;;;;;5063370;28;20040;-74
2022/10/02 13:14:33;;;;;;;0.08;0.08;;;;;;;;;;5060913;28;20040;-73
2022/10/02 13:17:12;;;;;;;0.38;0.17;;;;;;;;;;5060396;28;20052;-73
2022/10/02 13:19:45;;;;;;;4.97;0.35;;;;;;;;;;5062695;28;20048;-76
2022/10/02 13:22:15;;;;;;;1.63;0.40;;;;;;;;;;5059838;28;20048;-74
2022/10/02 13:24:53;;;;;;;0.17;0.17;;;;;;;;;;5064012;28;20054;-75
2022/10/02 13:27:27;;;;;;;0.85;0.15;;;;;;;;;;5062703;28;20489;-72
2022/10/02 13:30:04;;;;;;;0.13;0.13;;;;;;;;;;5064963;28;20070;-73
2022/10/02 13:32:38;;;;;;;0.45;0.35;;;;;;;;;;5067824;28;20519;-73
2022/10/02 13:35:16;;;;;;;0.10;0.00;;;;;;;;;;5063601;28;20060;-73
2022/10/02 13:37:50;;;;;;;1.45;0.68;;;;;;;;;;5068694;28;20049;-73
2022/10/02 13:40:25;;;;;;;0.20;0.20;;;;;;;;;;5057688;28;20502;-74
2022/10/02 13:43:11;;;;;;;0.30;0.20;;;;;;;;;;5069066;28;20058;-74
2022/10/02 13:45:41;;;;;;;0.63;0.10;;;;;;;;;;5068377;28;20409;-74
2022/10/02 13:48:14;;;;;;;0.00;0.00;;;;;;;;;;5068536;28;20051;-74
2022/10/02 13:50:47;;;;;;;0.30;0.17;;;;;;;;;;5065877;28;20400;-74
2022/10/02 13:53:40;;;;;;;0.20;0.20;;;;;;;;;;5068519;28;20477;-74
2022/10/02 13:56:18;;;;;;;0.38;0.38;;;;;;;;;;5060171;28;20084;-74
2022/10/02 13:58:57;;;;;;;1.00;0.50;;;;;;;;;;5060508;28;20048;-74
2022/10/02 14:01:31;;;;;;;0.22;0.22;;;;;;;;;;5063588;28;20053;-75
2022/10/02 14:04:12;;;;;;;0.50;0.20;;;;;;;;;;5056699;28;20063;-74
2022/10/02 14:06:42;;;;;;;0.10;0.10;;;;;;;;;;5064949;28;20057;-74
2022/10/02 14:09:19;;;;;;;0.68;0.30;;;;;;;;;;5061010;28;20090;-74
2022/10/02 14:12:04;;;;;;;0.10;0.10;;;;;;;;;;5063332;28;20536;-74
2022/10/02 14:14:41;;;;;;;1.80;0.43;;;;;;;;;;5060802;28;20051;-74
2022/10/02 14:17:17;;;;;;;2.17;0.32;;;;;;;;;;5063657;28;21017;-74
2022/10/02 14:20:09;;;;;;;0.65;0.25;;;;;;;;;;5063552;28;20052;-73
2022/10/02 14:22:45;;;;;;;0.50;0.30;;;;;;;;;;5057890;28;20053;-74
2022/10/02 14:25:22;;;;;;;0.45;0.30;;;;;;;;;;5062754;28;20055;-74
2022/10/02 14:28:00;;;;;;;0.40;0.22;;;;;;;;;;5060309;28;20500;-74
2022/10/02 14:30:32;;;;;;;0.63;0.10;;;;;;;;;;5055944;28;20128;-74
2022/10/02 14:33:04;;;;;;;0.43;0.10;;;;;;;;;;5057518;28;20352;-74
2022/10/02 14:35:35;;;;;;;0.00;0.00;;;;;;;;;;5053447;28;20110;-74
2022/10/02 14:38:31;;;;;;;0.10;0.10;;;;;;;;;;5065243;28;20124;-74
2022/10/02 14:41:06;;;;;;;1.25;0.35;;;;;;;;;;5073746;28;20056;-74
2022/10/02 14:43:53;;;;;;;0.35;0.25;;;;;;;;;;5059369;28;20614;-74
2022/10/02 14:46:34;;;;;;;0.85;0.40;;;;;;;;;;5043731;28;20064;-73
2022/10/02 14:49:13;;;;;;;0.10;0.10;;;;;;;;;;5059773;28;20072;-74
2022/10/02 14:51:56;;;;;;;0.98;0.40;;;;;;;;;;5058716;28;20132;-75
2022/10/02 14:54:35;;;;;;;0.10;0.10;;;;;;;;;;5054235;28;20053;-74
2022/10/02 14:57:19;;;;;;;0.70;0.70;;;;;;;;;;5062073;28;20048;-74
2022/10/02 15:00:05;;;;;;;1.52;0.25;;;;;;;;;;5065038;28;20067;-75
2022/10/02 15:02:57;;;;;;;0.63;0.10;;;;;;;;;;5046326;28;20064;-75
2022/10/02 15:05:47;;;;;;;0.10;0.10;;;;;;;;;;5046903;28;20389;-73
2022/10/02 15:08:16;;;;;;;0.10;0.10;;;;;;;;;;5062222;28;20132;-73
2022/10/02 15:10:45;;;;;;;0.10;0.10;;;;;;;;;;5062146;28;20045;-73
2022/10/02 15:13:23;;;;;;;0.10;0.10;;;;;;;;;;5062412;28;21375;-74
2022/10/02 15:17:53;;;;;;;0.30;0.20;;;;;;;;;;5060220;28;20044;-74
2022/10/02 15:18:48;;;;;;;0.32;0.30;;;;;;;;;;5063441;28;20044;-74
2022/10/02 15:21:25;;;;;;;0.63;0.63;;;;;;;;;;5066988;28;20048;-73
2022/10/02 15:23:56;;;;;;;0.25;0.17;;;;;;;;;;5056689;28;20056;-73
2022/10/02 15:26:31;;;;;;;0.10;0.10;;;;;;;;;;5055545;28;20080;-73
2022/10/02 15:29:06;;;;;;;0.63;0.13;;;;;;;;;;5057591;28;20411;-74
2022/10/02 15:31:40;;;;;;;0.28;0.20;;;;;;;;;;5061265;28;20048;-74
2022/10/02 15:34:15;;;;;;;0.20;0.10;;;;;;;;;;5064259;28;20040;-73
2022/10/02 15:36:54;;;;;;;1.67;0.10;;;;;;;;;;5051271;28;20059;-73
2022/10/02 15:39:35;;;;;;;0.10;0.10;;;;;;;;;;5053845;28;20501;-73
2022/10/02 15:42:07;;;;;;;2.38;0.40;;;;;;;;;;5057557;28;20329;-74
2022/10/02 15:44:58;;;;;;;1.25;0.60;;;;;;;;;;5055078;28;20094;-74
2022/10/02 15:47:47;;;;;;;4.03;0.60;;;;;;;;;;5057815;28;20040;-73
2022/10/02 15:50:27;;;;;;;0.82;0.60;;;;;;;;;;5048714;28;20076;-73
2022/10/02 15:53:05;;;;;;;1.15;0.30;;;;;;;;;;5056580;28;20276;-73